• Join FlightAware (Why Join?)
  • Login
  • US Flag 
07:40PM EDT


 

Airport Tracker/Info


-or-


 

Live Flight TrackerFlight Track Log ✈ ASQ6151 ✈ 22-Aug-2013 ✈ KGSO - KORD

Flight Track Log - Related Links

Times and Time Zones

All times are in EDT time to prevent confusion due to time zone crossing. See the ASQ6151 flight status page for this flight to view local times or setup timezone preferences in your user account.

Time Position Orientation Groundspeed Altitude Reporting Facility
EDT Latitude Longitude Course Direction KTS MPH feet Rate Location/Type
04:32PM 36.1358 -80.0692 313° West 227 261 5,000  Level Atlanta Center
04:33PM 36.2878 -80.2756 302° West  Level FlightAware Approximate
04:33PM 36.1822 -80.1467 307° West 242 278 7,600  Level Atlanta Center
04:34PM 36.3342 -80.3626 307° West  Level FlightAware Approximate
04:34PM 36.2200 -80.2169 304° West 247 284 9,500  Level Atlanta Center
04:35PM 36.3845 -80.4464 307° West  Level FlightAware Approximate
04:35PM 36.2411 -80.3008 287° West 252 290 11,200  Level Atlanta Center
04:36PM 36.4327 -80.5320 302° West  Level FlightAware Approximate
04:36PM 36.2606 -80.3928 285° West 280 322 11,800  Level Atlanta Center
04:37PM 36.2867 -80.4997 287° West 315 362 12,400 600 Climbing Atlanta Center
04:38PM 36.3361 -80.6211 297° West 346 398 13,000 1,200 Climbing Atlanta Center
04:39PM 36.3869 -80.7247 301° West 357 411 14,900 1,740 Climbing Atlanta Center
04:40PM 36.4436 -80.8153 308° West 346 398 16,500 1,440 Climbing Atlanta Center
04:41PM 36.5019 -80.9033 310° West 337 388 17,800 1,200 Climbing Atlanta Center
04:42PM 36.5606 -80.9914 310° West 337 388 18,900 1,140 Climbing Atlanta Center
04:43PM 36.6108 -81.0878 303° West 331 381 20,100 1,080 Climbing Atlanta Center
04:44PM 36.6569 -81.1767 303° West 331 381 21,100 1,080 Climbing Atlanta Center
04:45PM 36.7008 -81.2761 299° West 331 381 22,300 1,200 Climbing Atlanta Center
04:46PM 36.7447 -81.3783 298° West 336 387 23,500 1,140 Climbing Atlanta Center
04:47PM 36.7867 -81.4831 297° West 336 387 24,600 1,080 Climbing Atlanta Center
04:49PM 36.9267 -81.6903 310° West 332 382 27,200 1,020 Climbing Indianapolis Center
04:50PM 36.9875 -81.7786 311° West 335 386 28,000 360 Climbing Indianapolis Center
04:51PM 37.0503 -81.8731 310° West 348 400 28,000 120 Level Indianapolis Center
04:52PM 37.1200 -81.9753 311° West 376 433 28,300 600 Climbing Indianapolis Center
04:53PM 37.2022 -82.0947 311° West 385 443 29,300 960 Climbing Indianapolis Center
04:54PM 37.2703 -82.1956 310° West 382 440 30,300 900 Climbing Indianapolis Center
04:55PM 37.3372 -82.2958 310° West 376 433 31,200 840 Climbing Indianapolis Center
04:56PM 37.4050 -82.3967 310° West 378 435 32,100 960 Climbing Indianapolis Center
04:57PM 37.4844 -82.5153 310° West 381 438 33,200 900 Climbing Indianapolis Center
04:58PM 37.5517 -82.6158 310° West 378 435 34,000 360 Climbing Indianapolis Center
04:59PM 37.6217 -82.7208 310° West 388 447 34,000  Level Indianapolis Center
05:00PM 37.6953 -82.8322 310° West 409 471 34,000  Level Indianapolis Center
05:01PM 37.7711 -82.9475 310° West 425 489 34,000  Level Indianapolis Center
05:02PM 37.8592 -83.0833 309° West 428 493 34,000  Level Indianapolis Center
05:03PM 37.9344 -83.1983 310° West 426 490 34,000  Level Indianapolis Center
05:05PM 38.0258 -83.2808 325° Northwest  Level FlightAware Approximate
05:05PM 38.1192 -83.3775 325° Northwest 419 482 34,000  Level Indianapolis Center
05:07PM 38.2128 -83.4658 323° Northwest 418 481 34,000  Level Indianapolis Center
05:08PM 38.3231 -83.5689 324° Northwest 421 484 34,000  Level Indianapolis Center
05:09PM 38.4169 -83.6569 324° Northwest 419 482 34,000  Level Indianapolis Center
05:10PM 38.5117 -83.7461 324° Northwest 424 488 34,000  Level Indianapolis Center
05:11PM 38.6064 -83.8344 324° Northwest 422 486 34,000  Level Indianapolis Center
05:12PM 38.7089 -83.9319 323° Northwest 423 487 34,000  Level Indianapolis Center
05:13PM 38.8092 -84.0119 328° Northwest 426 490 34,000  Level Indianapolis Center
05:14PM 38.9194 -84.0719 337° Northwest 428 493 34,000  Level Indianapolis Center
05:15PM 39.0297 -84.1300 338° Northwest 427 491 34,000  Level Indianapolis Center
05:16PM 39.1397 -84.1886 338° Northwest 426 490 34,000  Level Indianapolis Center
05:17PM 39.2511 -84.2469 338° Northwest 428 493 34,000  Level Indianapolis Center
05:18PM 39.3842 -84.3183 337° Northwest 430 495 34,000  Level Indianapolis Center
05:19PM 39.4944 -84.3767 338° Northwest 426 490 34,000  Level Indianapolis Center
05:20PM 39.6053 -84.4361 338° Northwest 428 493 34,000  Level Indianapolis Center
05:21PM 39.7175 -84.4956 338° Northwest 432 497 34,000  Level Indianapolis Center
05:22PM 39.8294 -84.5561 337° Northwest 434 499 34,000  Level Indianapolis Center
05:23PM 39.9411 -84.6164 338° Northwest 434 499 34,000  Level Indianapolis Center
05:24PM 40.0514 -84.6761 337° Northwest 430 495 34,000  Level Indianapolis Center
05:25PM 40.1814 -84.7472 337° Northwest 424 488 34,000  Level Indianapolis Center
05:26PM 40.2919 -84.8056 338° Northwest 426 490 34,000  Level Indianapolis Center
05:27PM 40.4017 -84.8675 337° Northwest 426 490 34,000  Level Indianapolis Center
05:28PM 40.5217 -84.9331 337° Northwest 426 490 34,000  Level Indianapolis Center
05:29PM 40.6319 -84.9936 337° Northwest 432 497 34,000 -120 Level Indianapolis Center
05:30PM 40.6981 -85.0339 335° Northwest 427 491 33,800 -780 Descending Chicago Center
05:31PM 40.7964 -85.1664 314° West 420 483 32,600 -900 Descending Chicago Center
05:32PM 40.8756 -85.2808 312° West 419 482 32,000 -300 Descending Chicago Center
05:33PM 40.9533 -85.3964 312° West 420 483 32,000 -420 Level Chicago Center
05:34PM 41.0325 -85.5111 312° West 421 484 31,200 -900 Descending Chicago Center
05:35PM 41.1136 -85.6275 313° West 425 489 30,200 -1,200 Descending Chicago Center
05:36PM 41.1931 -85.7450 312° West 427 491 28,800 -1,740 Descending Chicago Center
05:37PM 41.2633 -85.8711 307° West 432 497 26,700 -1,860 Descending Chicago Center
05:38PM 41.2869 -86.0556 280° West 424 488 25,000 -1,920 Descending Chicago Center
05:39PM 41.3447 -86.1922 299° West 421 484 22,800 -2,280 Descending Chicago Center
05:40PM 41.4108 -86.3175 305° West 414 476 20,300 -2,520 Descending Chicago Center
05:41PM 41.4722 -86.4369 304° West 396 456 17,700 -2,580 Descending Chicago Center
05:42PM 41.5303 -86.5469 305° West 369 425 15,000 -2,520 Descending Chicago Center
05:44PM 41.5833 -86.6506 304° West 345 397 12,600 -1,500 Descending Chicago Center
05:45PM 41.6486 -86.7706 306° West 329 379 12,000 -300 Descending Chicago Center
05:46PM 41.7367 -86.8033 344° North 338 389 12,000 -540 Level Chicago Center
05:47PM 41.8308 -86.8228 351° North 343 395 11,000 -540 Descending Chicago Center
05:48PM 41.8917 -86.8944 319° Northwest 331 381 11,000  Level Chicago Center
05:49PM 41.9175 -87.0072 287° West 321 369 11,000 -480 Level Chicago Center
05:50PM 41.9464 -87.1261 288° West 292 336 10,000 -1,200 Descending Chicago Center
05:51PM 41.9647 -87.2122 286° West 250 288 8,600 -1,380 Descending Chicago Center
05:52PM 41.9831 -87.3069 285° West 259 298 7,200 -780 Descending Chicago Center
05:53PM 41.9836 -87.4014 270° West 256 295 7,000 -420 Descending Chicago Center
05:54PM 41.9831 -87.4944 270° West 252 290 6,400 -1,020 Descending Chicago Center
05:55PM 41.9836 -87.5942 270° West 229 264 4,900 -1,260 Descending Chicago Center
05:56PM 41.9836 -87.6600 270° West 188 216 3,900 -960 Descending Chicago Center
05:57PM 41.9833 -87.7286 270° West 185 213 3,000 -1,020 Descending Chicago Center
05:58PM 41.9833 -87.7833 270° West 186 214 2,200 -960 Descending Chicago TRACON
05:59PM 41.9833 -87.8333 270° West 143 165 1,400 -840 Descending Chicago TRACON
06:01PM 41.9667 -87.9000 270° West  Level FlightAware Approximate
06:08PM 41.9817 -87.9067 270° West  Level Estimated